sensor_id;sensor_type;location;lat;lon;timestamp;pressure;altitude;pressure_sealevel;temperature;humidity
19783;BME280;10051;40.294;-3.754;2022-10-10T00:01:20;93898.34;;;18.04;49.27
19783;BME280;10051;40.294;-3.754;2022-10-10T00:03:45;93996.16;;;18.57;49.76
19783;BME280;10051;40.294;-3.754;2022-10-10T00:06:12;94158.09;;;19.63;50.03
19783;BME280;10051;40.294;-3.754;2022-10-10T00:08:37;93833.34;;;17.43;49.86
19783;BME280;10051;40.294;-3.754;2022-10-10T00:11:04;94036.09;;;18.94;49.75
19783;BME280;10051;40.294;-3.754;2022-10-10T00:13:30;93879.69;;;17.79;49.79
19783;BME280;10051;40.294;-3.754;2022-10-10T00:15:55;93900.97;;;17.79;50.33
19783;BME280;10051;40.294;-3.754;2022-10-10T00:18:21;94112.25;;;19.32;50.16
19783;BME280;10051;40.294;-3.754;2022-10-10T00:20:49;94044.75;;;18.91;50.24
19783;BME280;10051;40.294;-3.754;2022-10-10T00:23:15;93848.41;;;17.51;50.09
19783;BME280;10051;40.294;-3.754;2022-10-10T00:25:40;94046.34;;;19.05;49.98
19783;BME280;10051;40.294;-3.754;2022-10-10T00:28:06;93861.28;;;17.62;50.25
19783;BME280;10051;40.294;-3.754;2022-10-10T00:30:31;94128.91;;;19.54;50.40
19783;BME280;10051;40.294;-3.754;2022-10-10T00:32:58;94036.88;;;18.95;50.40
19783;BME280;10051;40.294;-3.754;2022-10-10T00:35:24;94039.44;;;18.91;50.32
19783;BME280;10051;40.294;-3.754;2022-10-10T00:37:50;93998.25;;;18.64;50.30
19783;BME280;10051;40.294;-3.754;2022-10-10T00:40:16;94083.72;;;19.21;50.33
19783;BME280;10051;40.294;-3.754;2022-10-10T00:42:41;94046.66;;;19.03;50.34
19783;BME280;10051;40.294;-3.754;2022-10-10T00:45:29;94062.94;;;19.26;50.31
19783;BME280;10051;40.294;-3.754;2022-10-10T00:48:02;94138.16;;;19.85;49.74
19783;BME280;10051;40.294;-3.754;2022-10-10T00:50:30;94016.34;;;19.08;49.48
19783;BME280;10051;40.294;-3.754;2022-10-10T00:53:00;93841.78;;;17.95;49.68
19783;BME280;10051;40.294;-3.754;2022-10-10T00:55:27;93891.50;;;18.28;49.71
19783;BME280;10051;40.294;-3.754;2022-10-10T00:57:53;94086.00;;;19.59;49.42
19783;BME280;10051;40.294;-3.754;2022-10-10T01:00:19;94011.69;;;19.05;49.48
19783;BME280;10051;40.294;-3.754;2022-10-10T01:02:44;93969.94;;;18.84;49.40
19783;BME280;10051;40.294;-3.754;2022-10-10T01:05:10;94050.41;;;19.27;49.74
19783;BME280;10051;40.294;-3.754;2022-10-10T01:07:36;93846.25;;;18.03;49.33
19783;BME280;10051;40.294;-3.754;2022-10-10T01:10:06;94054.41;;;19.33;49.71
19783;BME280;10051;40.294;-3.754;2022-10-10T01:16:03;94142.38;;;19.86;50.15
19783;BME280;10051;40.294;-3.754;2022-10-10T01:18:25;94135.03;;;19.83;50.48
19783;BME280;10051;40.294;-3.754;2022-10-10T01:23:49;94135.41;;;19.69;50.95
19783;BME280;10051;40.294;-3.754;2022-10-10T01:38:33;94133.44;;;19.54;51.57
19783;BME280;10051;40.294;-3.754;2022-10-10T01:43:25;93970.44;;;18.24;52.37
19783;BME280;10051;40.294;-3.754;2022-10-10T01:45:52;93983.94;;;18.19;52.60
19783;BME280;10051;40.294;-3.754;2022-10-10T01:48:21;94108.50;;;19.09;53.11
19783;BME280;10051;40.294;-3.754;2022-10-10T01:53:28;94130.94;;;19.20;53.24
19783;BME280;10051;40.294;-3.754;2022-10-10T01:59:00;94130.59;;;19.09;53.45
19783;BME280;10051;40.294;-3.754;2022-10-10T02:01:38;94023.75;;;18.27;53.69
19783;BME280;10051;40.294;-3.754;2022-10-10T02:04:48;94066.25;;;18.49;53.65
19783;BME280;10051;40.294;-3.754;2022-10-10T02:07:32;93908.53;;;17.44;54.01
19783;BME280;10051;40.294;-3.754;2022-10-10T02:10:02;94048.16;;;18.30;53.86
19783;BME280;10051;40.294;-3.754;2022-10-10T02:12:30;94056.59;;;18.32;54.34
19783;BME280;10051;40.294;-3.754;2022-10-10T02:15:07;94015.75;;;18.15;54.23
19783;BME280;10051;40.294;-3.754;2022-10-10T02:17:35;93913.50;;;17.45;53.90
19783;BME280;10051;40.294;-3.754;2022-10-10T02:20:05;93842.72;;;16.94;53.80
19783;BME280;10051;40.294;-3.754;2022-10-10T02:22:32;93882.94;;;17.05;54.67
19783;BME280;10051;40.294;-3.754;2022-10-10T02:24:59;93832.59;;;16.88;54.51
19783;BME280;10051;40.294;-3.754;2022-10-10T02:27:32;94064.22;;;18.33;54.32
19783;BME280;10051;40.294;-3.754;2022-10-10T02:30:01;93907.91;;;17.26;54.61
19783;BME280;10051;40.294;-3.754;2022-10-10T02:32:33;94132.44;;;18.84;54.53
19783;BME280;10051;40.294;-3.754;2022-10-10T02:35:06;93860.13;;;17.04;54.29
19783;BME280;10051;40.294;-3.754;2022-10-10T02:37:32;93917.84;;;17.50;53.82
19783;BME280;10051;40.294;-3.754;2022-10-10T02:40:00;94138.69;;;19.00;53.93
19783;BME280;10051;40.294;-3.754;2022-10-10T02:42:28;94055.81;;;18.31;54.05
19783;BME280;10051;40.294;-3.754;2022-10-10T02:44:55;93946.13;;;17.67;53.98
19783;BME280;10051;40.294;-3.754;2022-10-10T02:47:21;94100.47;;;18.71;54.24
19783;BME280;10051;40.294;-3.754;2022-10-10T02:49:47;93996.66;;;18.01;53.94
19783;BME280;10051;40.294;-3.754;2022-10-10T02:52:14;94000.78;;;18.10;53.99
19783;BME280;10051;40.294;-3.754;2022-10-10T02:54:40;93954.56;;;17.69;54.20
19783;BME280;10051;40.294;-3.754;2022-10-10T02:57:06;93924.19;;;17.58;54.24
19783;BME280;10051;40.294;-3.754;2022-10-10T02:59:32;94106.44;;;18.81;54.55
19783;BME280;10051;40.294;-3.754;2022-10-10T03:01:57;93927.72;;;17.62;54.36
19783;BME280;10051;40.294;-3.754;2022-10-10T03:04:23;93956.03;;;17.79;54.74
19783;BME280;10051;40.294;-3.754;2022-10-10T03:06:49;93866.25;;;17.17;54.57
19783;BME280;10051;40.294;-3.754;2022-10-10T03:09:14;93907.06;;;17.34;54.83
19783;BME280;10051;40.294;-3.754;2022-10-10T03:11:40;94018.44;;;17.94;55.54
19783;BME280;10051;40.294;-3.754;2022-10-10T03:14:05;93984.75;;;17.86;55.30
19783;BME280;10051;40.294;-3.754;2022-10-10T03:16:31;93931.94;;;17.63;55.05
19783;BME280;10051;40.294;-3.754;2022-10-10T03:18:57;94051.16;;;18.40;55.48
19783;BME280;10051;40.294;-3.754;2022-10-10T03:21:22;93856.69;;;17.04;55.42
19783;BME280;10051;40.294;-3.754;2022-10-10T03:23:48;93871.72;;;17.33;55.17
19783;BME280;10051;40.294;-3.754;2022-10-10T03:26:13;93790.91;;;16.88;55.38
19783;BME280;10051;40.294;-3.754;2022-10-10T03:28:39;93997.69;;;18.21;55.67
19783;BME280;10051;40.294;-3.754;2022-10-10T03:31:04;94030.63;;;18.28;56.43
19783;BME280;10051;40.294;-3.754;2022-10-10T03:33:30;93903.50;;;17.30;56.97
19783;BME280;10051;40.294;-3.754;2022-10-10T03:35:55;94106.78;;;18.67;57.26
19783;BME280;10051;40.294;-3.754;2022-10-10T03:38:21;94070.25;;;18.42;57.38
19783;BME280;10051;40.294;-3.754;2022-10-10T03:40:46;93869.56;;;17.14;57.85
19783;BME280;10051;40.294;-3.754;2022-10-10T03:43:13;94100.56;;;18.63;58.11
19783;BME280;10051;40.294;-3.754;2022-10-10T03:45:41;93983.31;;;17.88;58.38
19783;BME280;10051;40.294;-3.754;2022-10-10T03:48:08;93987.63;;;17.80;58.89
19783;BME280;10051;40.294;-3.754;2022-10-10T03:50:34;94019.44;;;17.89;59.06
19783;BME280;10051;40.294;-3.754;2022-10-10T03:52:59;93956.63;;;17.51;59.78
19783;BME280;10051;40.294;-3.754;2022-10-10T03:55:25;93937.59;;;17.28;60.04
19783;BME280;10051;40.294;-3.754;2022-10-10T03:57:50;93979.53;;;17.56;60.27
19783;BME280;10051;40.294;-3.754;2022-10-10T04:00:16;94000.00;;;17.76;60.67
19783;BME280;10051;40.294;-3.754;2022-10-10T04:02:41;93964.69;;;17.42;60.83
19783;BME280;10051;40.294;-3.754;2022-10-10T04:05:07;93943.66;;;17.28;61.29
19783;BME280;10051;40.294;-3.754;2022-10-10T04:07:33;93928.72;;;17.23;61.22
19783;BME280;10051;40.294;-3.754;2022-10-10T04:09:58;94077.59;;;18.12;61.81
19783;BME280;10051;40.294;-3.754;2022-10-10T04:12:24;93910.34;;;16.97;61.88
19783;BME280;10051;40.294;-3.754;2022-10-10T04:14:49;93860.78;;;16.80;61.34
19783;BME280;10051;40.294;-3.754;2022-10-10T04:17:15;93853.28;;;16.82;61.48
19783;BME280;10051;40.294;-3.754;2022-10-10T04:19:41;93859.22;;;16.79;61.61
19783;BME280;10051;40.294;-3.754;2022-10-10T04:22:06;93831.78;;;16.75;61.67
19783;BME280;10051;40.294;-3.754;2022-10-10T04:24:32;93937.31;;;17.42;61.91
19783;BME280;10051;40.294;-3.754;2022-10-10T04:26:57;93914.91;;;17.30;61.52
19783;BME280;10051;40.294;-3.754;2022-10-10T04:29:23;93832.16;;;16.86;61.40
19783;BME280;10051;40.294;-3.754;2022-10-10T04:31:49;94102.38;;;18.83;61.27
19783;BME280;10051;40.294;-3.754;2022-10-10T04:34:14;93935.00;;;17.52;61.59
19783;BME280;10051;40.294;-3.754;2022-10-10T04:36:40;94121.53;;;18.77;62.10
19783;BME280;10051;40.294;-3.754;2022-10-10T04:39:06;93874.72;;;16.98;62.53
19783;BME280;10051;40.294;-3.754;2022-10-10T04:41:32;94032.53;;;17.94;62.96
19783;BME280;10051;40.294;-3.754;2022-10-10T04:43:57;94020.88;;;17.87;62.79
19783;BME280;10051;40.294;-3.754;2022-10-10T04:46:23;94038.31;;;17.96;63.45
19783;BME280;10051;40.294;-3.754;2022-10-10T04:48:49;94077.03;;;18.06;63.89
19783;BME280;10051;40.294;-3.754;2022-10-10T04:51:14;94142.78;;;18.39;64.39
19783;BME280;10051;40.294;-3.754;2022-10-10T04:53:40;93945.84;;;17.14;64.40
19783;BME280;10051;40.294;-3.754;2022-10-10T04:56:05;93910.50;;;16.92;65.11
19783;BME280;10051;40.294;-3.754;2022-10-10T04:58:31;93888.25;;;16.84;64.44
19783;BME280;10051;40.294;-3.754;2022-10-10T05:00:57;94149.00;;;18.43;64.47
19783;BME280;10051;40.294;-3.754;2022-10-10T05:03:23;93968.81;;;17.31;64.12
19783;BME280;10051;40.294;-3.754;2022-10-10T05:05:50;94046.78;;;17.90;63.95
19783;BME280;10051;40.294;-3.754;2022-10-10T05:08:16;94026.31;;;17.90;63.78
19783;BME280;10051;40.294;-3.754;2022-10-10T05:10:44;93912.16;;;17.05;63.84
19783;BME280;10051;40.294;-3.754;2022-10-10T05:13:11;94035.50;;;17.93;63.73
19783;BME280;10051;40.294;-3.754;2022-10-10T05:15:38;94133.72;;;18.53;63.95
19783;BME280;10051;40.294;-3.754;2022-10-10T05:18:04;94047.59;;;17.90;63.93
19783;BME280;10051;40.294;-3.754;2022-10-10T05:20:31;94037.16;;;17.85;63.84
19783;BME280;10051;40.294;-3.754;2022-10-10T05:22:56;93843.84;;;16.51;64.07
19783;BME280;10051;40.294;-3.754;2022-10-10T05:25:22;93904.03;;;17.02;64.08
19783;BME280;10051;40.294;-3.754;2022-10-10T05:27:47;93877.75;;;16.67;64.56
19783;BME280;10051;40.294;-3.754;2022-10-10T05:30:13;94106.47;;;18.22;65.01
19783;BME280;10051;40.294;-3.754;2022-10-10T05:32:39;93846.03;;;16.49;64.79
19783;BME280;10051;40.294;-3.754;2022-10-10T05:35:05;94057.44;;;17.90;64.62
19783;BME280;10051;40.294;-3.754;2022-10-10T05:37:32;93933.47;;;17.18;64.63
19783;BME280;10051;40.294;-3.754;2022-10-10T05:39:57;94168.88;;;18.46;64.73
19783;BME280;10051;40.294;-3.754;2022-10-10T05:42:23;93916.59;;;16.92;64.73
19783;BME280;10051;40.294;-3.754;2022-10-10T05:44:49;94052.75;;;17.74;64.90
19783;BME280;10051;40.294;-3.754;2022-10-10T05:47:14;94094.94;;;17.97;64.70
19783;BME280;10051;40.294;-3.754;2022-10-10T05:49:40;93951.34;;;17.08;64.76
19783;BME280;10051;40.294;-3.754;2022-10-10T05:52:06;94089.44;;;18.02;64.76
19783;BME280;10051;40.294;-3.754;2022-10-10T05:54:31;94029.94;;;17.52;64.89
19783;BME280;10051;40.294;-3.754;2022-10-10T05:56:57;93928.13;;;16.75;64.75
19783;BME280;10051;40.294;-3.754;2022-10-10T05:59:22;93843.03;;;16.29;64.62
19783;BME280;10051;40.294;-3.754;2022-10-10T06:01:48;94020.69;;;17.37;64.62
19783;BME280;10051;40.294;-3.754;2022-10-10T06:04:14;93886.66;;;16.41;64.69
19783;BME280;10051;40.294;-3.754;2022-10-10T06:06:39;94135.09;;;17.83;64.98
19783;BME280;10051;40.294;-3.754;2022-10-10T06:09:05;94058.53;;;17.34;64.72
19783;BME280;10051;40.294;-3.754;2022-10-10T06:11:30;94101.06;;;17.76;64.80
19783;BME280;10051;40.294;-3.754;2022-10-10T06:13:56;94177.97;;;18.45;64.42
19783;BME280;10051;40.294;-3.754;2022-10-10T06:16:25;93970.41;;;17.11;64.62
19783;BME280;10051;40.294;-3.754;2022-10-10T06:18:51;94217.66;;;18.71;64.09
19783;BME280;10051;40.294;-3.754;2022-10-10T06:21:17;94186.97;;;18.53;64.39
19783;BME280;10051;40.294;-3.754;2022-10-10T06:23:43;94023.16;;;17.42;64.13
19783;BME280;10051;40.294;-3.754;2022-10-10T06:26:10;94045.53;;;17.53;65.75
19783;BME280;10051;40.294;-3.754;2022-10-10T06:28:36;94208.06;;;18.58;67.13
19783;BME280;10051;40.294;-3.754;2022-10-10T06:31:04;94236.69;;;18.95;68.03
19783;BME280;10051;40.294;-3.754;2022-10-10T06:33:30;94144.50;;;18.23;69.62
19783;BME280;10051;40.294;-3.754;2022-10-10T06:35:57;94248.00;;;18.92;70.47
19783;BME280;10051;40.294;-3.754;2022-10-10T06:38:23;94225.19;;;18.69;71.91
19783;BME280;10051;40.294;-3.754;2022-10-10T06:40:48;94227.66;;;18.75;72.32
19783;BME280;10051;40.294;-3.754;2022-10-10T06:43:15;94187.91;;;18.36;72.14
19783;BME280;10051;40.294;-3.754;2022-10-10T06:45:43;94253.03;;;18.72;70.97
19783;BME280;10051;40.294;-3.754;2022-10-10T06:48:09;94146.06;;;17.81;72.93
19783;BME280;10051;40.294;-3.754;2022-10-10T06:50:35;94261.44;;;18.40;75.62
19783;BME280;10051;40.294;-3.754;2022-10-10T06:53:00;94264.56;;;18.21;77.10
19783;BME280;10051;40.294;-3.754;2022-10-10T06:55:26;94192.47;;;17.63;78.10
19783;BME280;10051;40.294;-3.754;2022-10-10T06:57:52;94231.34;;;17.76;77.94
19783;BME280;10051;40.294;-3.754;2022-10-10T07:00:18;94268.22;;;17.87;78.27
19783;BME280;10051;40.294;-3.754;2022-10-10T07:02:44;94201.78;;;17.48;80.09
19783;BME280;10051;40.294;-3.754;2022-10-10T07:05:10;94266.97;;;17.84;79.47
19783;BME280;10051;40.294;-3.754;2022-10-10T07:07:37;94146.53;;;16.93;81.00
19783;BME280;10051;40.294;-3.754;2022-10-10T07:10:05;94192.97;;;17.26;81.02
19783;BME280;10051;40.294;-3.754;2022-10-10T07:12:30;94144.63;;;17.03;81.01
19783;BME280;10051;40.294;-3.754;2022-10-10T07:14:56;94086.34;;;16.68;82.11
19783;BME280;10051;40.294;-3.754;2022-10-10T07:17:21;94140.88;;;17.04;82.77
19783;BME280;10051;40.294;-3.754;2022-10-10T07:19:47;94246.38;;;17.72;84.36
19783;BME280;10051;40.294;-3.754;2022-10-10T07:22:12;94122.47;;;16.90;83.47
19783;BME280;10051;40.294;-3.754;2022-10-10T07:24:38;94272.56;;;17.91;83.61
19783;BME280;10051;40.294;-3.754;2022-10-10T07:27:04;94247.34;;;17.67;84.03
19783;BME280;10051;40.294;-3.754;2022-10-10T07:29:32;94140.88;;;17.04;84.60
19783;BME280;10051;40.294;-3.754;2022-10-10T07:31:57;94288.13;;;17.72;86.51
19783;BME280;10051;40.294;-3.754;2022-10-10T07:34:23;94226.16;;;17.11;88.20
19783;BME280;10051;40.294;-3.754;2022-10-10T07:36:48;94274.59;;;17.26;91.26
19783;BME280;10051;40.294;-3.754;2022-10-10T07:39:22;94222.50;;;16.77;93.61
19783;BME280;10051;40.294;-3.754;2022-10-10T07:41:48;94277.44;;;17.03;92.68
19783;BME280;10051;40.294;-3.754;2022-10-10T07:44:15;94259.66;;;16.94;92.82
19783;BME280;10051;40.294;-3.754;2022-10-10T07:46:42;94223.91;;;16.74;95.47
19783;BME280;10051;40.294;-3.754;2022-10-10T07:49:07;94262.31;;;16.94;94.07
19783;BME280;10051;40.294;-3.754;2022-10-10T07:51:33;94148.91;;;16.21;92.85
19783;BME280;10051;40.294;-3.754;2022-10-10T07:53:58;94304.09;;;17.33;94.89
19783;BME280;10051;40.294;-3.754;2022-10-10T07:56:24;94256.19;;;17.12;93.95
19783;BME280;10051;40.294;-3.754;2022-10-10T07:58:49;94261.28;;;17.26;93.50
19783;BME280;10051;40.294;-3.754;2022-10-10T08:01:16;94280.75;;;17.47;91.98
19783;BME280;10051;40.294;-3.754;2022-10-10T08:03:42;94297.41;;;17.65;90.95
19783;BME280;10051;40.294;-3.754;2022-10-10T08:06:10;94297.09;;;17.67;90.17
19783;BME280;10051;40.294;-3.754;2022-10-10T08:08:36;94245.13;;;17.39;93.23
19783;BME280;10051;40.294;-3.754;2022-10-10T08:11:09;94269.47;;;17.50;90.22
19783;BME280;10051;40.294;-3.754;2022-10-10T08:13:35;94213.50;;;17.17;90.92
19783;BME280;10051;40.294;-3.754;2022-10-10T08:16:02;94303.50;;;17.66;91.65
19783;BME280;10051;40.294;-3.754;2022-10-10T08:18:28;94307.84;;;17.79;91.29
19783;BME280;10051;40.294;-3.754;2022-10-10T08:21:05;94294.06;;;17.77;89.71
19783;BME280;10051;40.294;-3.754;2022-10-10T08:23:31;94251.97;;;17.49;90.03
19783;BME280;10051;40.294;-3.754;2022-10-10T08:25:57;94276.03;;;17.53;92.01
19783;BME280;10051;40.294;-3.754;2022-10-10T08:28:24;94313.56;;;17.90;92.06
19783;BME280;10051;40.294;-3.754;2022-10-10T08:30:50;94331.06;;;18.00;92.00
19783;BME280;10051;40.294;-3.754;2022-10-10T08:33:15;94269.91;;;17.61;90.09
19783;BME280;10051;40.294;-3.754;2022-10-10T08:35:40;94315.13;;;17.91;89.52
19783;BME280;10051;40.294;-3.754;2022-10-10T08:38:06;94288.31;;;17.75;89.66
19783;BME280;10051;40.294;-3.754;2022-10-10T08:40:39;94326.19;;;18.02;90.11
19783;BME280;10051;40.294;-3.754;2022-10-10T08:43:06;94344.91;;;18.15;90.70
19783;BME280;10051;40.294;-3.754;2022-10-10T08:45:34;94331.78;;;18.09;88.91
19783;BME280;10051;40.294;-3.754;2022-10-10T08:48:14;94343.63;;;18.21;90.05
19783;BME280;10051;40.294;-3.754;2022-10-10T08:50:48;94337.69;;;18.15;88.13
19783;BME280;10051;40.294;-3.754;2022-10-10T08:53:26;94297.19;;;17.79;89.19
19783;BME280;10051;40.294;-3.754;2022-10-10T08:55:54;94324.84;;;17.87;91.29
19783;BME280;10051;40.294;-3.754;2022-10-10T08:58:26;94340.28;;;17.94;91.52
19783;BME280;10051;40.294;-3.754;2022-10-10T09:01:01;94346.41;;;17.94;92.15
19783;BME280;10051;40.294;-3.754;2022-10-10T09:03:40;94352.16;;;18.05;90.52
19783;BME280;10051;40.294;-3.754;2022-10-10T09:12:34;94351.34;;;18.13;90.06
19783;BME280;10051;40.294;-3.754;2022-10-10T09:21:05;94365.31;;;17.93;92.63
19783;BME280;10051;40.294;-3.754;2022-10-10T09:23:35;94346.34;;;17.73;91.03
19783;BME280;10051;40.294;-3.754;2022-10-10T09:26:10;94371.75;;;18.01;90.83
19783;BME280;10051;40.294;-3.754;2022-10-10T09:28:44;94384.72;;;18.02;89.94
19783;BME280;10051;40.294;-3.754;2022-10-10T09:31:20;94376.88;;;17.97;91.59
19783;BME280;10051;40.294;-3.754;2022-10-10T09:33:53;94377.38;;;17.99;90.97
19783;BME280;10051;40.294;-3.754;2022-10-10T09:36:23;94397.84;;;18.07;89.86
19783;BME280;10051;40.294;-3.754;2022-10-10T09:38:52;94392.66;;;18.11;90.63
19783;BME280;10051;40.294;-3.754;2022-10-10T09:41:28;94406.59;;;18.17;89.58
19783;BME280;10051;40.294;-3.754;2022-10-10T09:43:59;94403.13;;;18.16;88.78
19783;BME280;10051;40.294;-3.754;2022-10-10T09:46:27;94370.19;;;18.00;88.35
19783;BME280;10051;40.294;-3.754;2022-10-10T09:48:53;94405.59;;;18.30;88.50
19783;BME280;10051;40.294;-3.754;2022-10-10T09:51:19;94377.13;;;18.22;86.33
19783;BME280;10051;40.294;-3.754;2022-10-10T09:53:46;94401.44;;;18.41;86.77
19783;BME280;10051;40.294;-3.754;2022-10-10T09:56:20;94392.28;;;18.30;85.43
19783;BME280;10051;40.294;-3.754;2022-10-10T09:58:48;94399.22;;;18.43;84.93
19783;BME280;10051;40.294;-3.754;2022-10-10T10:03:42;94394.41;;;18.37;85.11
19783;BME280;10051;40.294;-3.754;2022-10-10T10:06:13;94402.50;;;18.49;86.09
19783;BME280;10051;40.294;-3.754;2022-10-10T10:08:40;94372.53;;;18.31;84.41
19783;BME280;10051;40.294;-3.754;2022-10-10T10:11:23;94340.56;;;18.10;84.11
19783;BME280;10051;40.294;-3.754;2022-10-10T10:13:54;94380.41;;;18.49;85.51
19783;BME280;10051;40.294;-3.754;2022-10-10T10:16:29;94396.00;;;18.59;82.88
19783;BME280;10051;40.294;-3.754;2022-10-10T10:18:56;94316.94;;;18.08;84.44
19783;BME280;10051;40.294;-3.754;2022-10-10T10:21:22;94397.56;;;18.60;84.59
19783;BME280;10051;40.294;-3.754;2022-10-10T10:26:46;94401.72;;;18.91;80.52
19783;BME280;10051;40.294;-3.754;2022-10-10T10:37:01;94392.78;;;19.17;76.82
19783;BME280;10051;40.294;-3.754;2022-10-10T10:42:36;94393.81;;;19.71;73.27
19783;BME280;10051;40.294;-3.754;2022-10-10T10:50:37;94324.56;;;19.74;69.14
19783;BME280;10051;40.294;-3.754;2022-10-10T10:55:53;94392.53;;;20.39;68.73
19783;BME280;10051;40.294;-3.754;2022-10-10T11:01:03;94394.53;;;20.42;67.42
19783;BME280;10051;40.294;-3.754;2022-10-10T11:06:17;94397.41;;;20.62;67.36
19783;BME280;10051;40.294;-3.754;2022-10-10T11:09:19;94380.75;;;20.40;66.89
19783;BME280;10051;40.294;-3.754;2022-10-10T11:15:05;94404.28;;;20.75;65.15
19783;BME280;10051;40.294;-3.754;2022-10-10T11:17:41;94312.88;;;20.41;64.03
19783;BME280;10051;40.294;-3.754;2022-10-10T11:20:27;94330.16;;;20.72;64.05
19783;BME280;10051;40.294;-3.754;2022-10-10T11:25:32;94372.31;;;20.91;63.66
19783;BME280;10051;40.294;-3.754;2022-10-10T11:28:10;94391.56;;;20.97;64.14
19783;BME280;10051;40.294;-3.754;2022-10-10T11:30:43;94356.66;;;20.77;63.92
19783;BME280;10051;40.294;-3.754;2022-10-10T11:33:15;94377.56;;;20.88;64.55
19783;BME280;10051;40.294;-3.754;2022-10-10T11:35:52;94359.56;;;20.60;65.17
19783;BME280;10051;40.294;-3.754;2022-10-10T11:41:21;94379.31;;;20.96;62.41
19783;BME280;10051;40.294;-3.754;2022-10-10T11:43:56;94379.63;;;21.07;62.12
19783;BME280;10051;40.294;-3.754;2022-10-10T11:49:14;94378.31;;;21.29;62.72
19783;BME280;10051;40.294;-3.754;2022-10-10T11:51:59;94377.66;;;21.20;64.34
19783;BME280;10051;40.294;-3.754;2022-10-10T11:56:53;94339.25;;;20.96;64.26
19783;BME280;10051;40.294;-3.754;2022-10-10T11:59:26;94373.88;;;21.21;64.56
19783;BME280;10051;40.294;-3.754;2022-10-10T12:01:55;94369.94;;;21.31;64.34
19783;BME280;10051;40.294;-3.754;2022-10-10T12:04:23;94377.97;;;21.47;63.67
19783;BME280;10051;40.294;-3.754;2022-10-10T12:06:57;94334.72;;;21.29;63.67
19783;BME280;10051;40.294;-3.754;2022-10-10T12:09:33;94365.16;;;21.52;62.77
19783;BME280;10051;40.294;-3.754;2022-10-10T12:12:12;94340.28;;;21.52;63.40
19783;BME280;10051;40.294;-3.754;2022-10-10T12:14:43;94301.69;;;21.37;63.54
19783;BME280;10051;40.294;-3.754;2022-10-10T12:17:42;94310.78;;;21.32;62.87
19783;BME280;10051;40.294;-3.754;2022-10-10T12:22:39;94342.25;;;21.55;63.06
19783;BME280;10051;40.294;-3.754;2022-10-10T12:25:35;94327.91;;;21.76;60.61
19783;BME280;10051;40.294;-3.754;2022-10-10T12:30:29;94310.75;;;22.28;61.90
19783;BME280;10051;40.294;-3.754;2022-10-10T12:32:55;94322.72;;;22.35;59.87
19783;BME280;10051;40.294;-3.754;2022-10-10T12:35:37;94331.78;;;22.46;60.17
19783;BME280;10051;40.294;-3.754;2022-10-10T12:43:42;94283.16;;;22.28;56.94
19783;BME280;10051;40.294;-3.754;2022-10-10T12:46:23;94317.47;;;22.58;56.50
19783;BME280;10051;40.294;-3.754;2022-10-10T12:51:22;94286.53;;;22.61;58.47
19783;BME280;10051;40.294;-3.754;2022-10-10T12:53:52;94311.06;;;22.82;58.12
19783;BME280;10051;40.294;-3.754;2022-10-10T12:56:33;94287.22;;;22.77;58.58
19783;BME280;10051;40.294;-3.754;2022-10-10T12:58:59;94196.06;;;22.34;57.88
19783;BME280;10051;40.294;-3.754;2022-10-10T13:01:29;94284.56;;;22.77;57.39
19783;BME280;10051;40.294;-3.754;2022-10-10T13:03:57;94297.13;;;22.73;57.58
19783;BME280;10051;40.294;-3.754;2022-10-10T13:06:37;94281.88;;;22.57;58.57
19783;BME280;10051;40.294;-3.754;2022-10-10T13:09:08;94291.69;;;22.50;58.17
19783;BME280;10051;40.294;-3.754;2022-10-10T13:11:51;94266.34;;;22.27;58.15
19783;BME280;10051;40.294;-3.754;2022-10-10T13:14:17;94250.91;;;22.40;57.93
19783;BME280;10051;40.294;-3.754;2022-10-10T13:16:43;94285.19;;;22.90;57.06
19783;BME280;10051;40.294;-3.754;2022-10-10T13:19:19;94275.69;;;23.16;55.65
19783;BME280;10051;40.294;-3.754;2022-10-10T13:21:45;94274.34;;;23.26;53.46
19783;BME280;10051;40.294;-3.754;2022-10-10T13:24:14;94277.75;;;23.46;53.43
19783;BME280;10051;40.294;-3.754;2022-10-10T13:26:50;94252.84;;;23.45;48.91
19783;BME280;10051;40.294;-3.754;2022-10-10T13:29:33;94276.50;;;23.63;48.21
19783;BME280;10051;40.294;-3.754;2022-10-10T13:32:08;94276.31;;;23.75;48.69
19783;BME280;10051;40.294;-3.754;2022-10-10T13:34:40;94267.94;;;23.81;49.40
19783;BME280;10051;40.294;-3.754;2022-10-10T13:37:06;94242.00;;;23.65;49.74
19783;BME280;10051;40.294;-3.754;2022-10-10T13:39:35;94250.72;;;23.82;50.21
19783;BME280;10051;40.294;-3.754;2022-10-10T13:42:02;94257.09;;;23.73;48.33
19783;BME280;10051;40.294;-3.754;2022-10-10T13:44:50;94262.72;;;23.65;49.19
19783;BME280;10051;40.294;-3.754;2022-10-10T13:50:23;94208.84;;;23.27;51.08
19783;BME280;10051;40.294;-3.754;2022-10-10T13:53:20;94130.06;;;22.65;51.17
19783;BME280;10051;40.294;-3.754;2022-10-10T13:55:39;94221.41;;;23.23;49.28
19783;BME280;10051;40.294;-3.754;2022-10-10T13:58:07;94249.34;;;23.22;50.29
19783;BME280;10051;40.294;-3.754;2022-10-10T14:00:35;94201.19;;;22.82;50.65
19783;BME280;10051;40.294;-3.754;2022-10-10T14:03:12;94219.38;;;22.93;50.44
19783;BME280;10051;40.294;-3.754;2022-10-10T14:05:41;94227.06;;;22.94;50.60
19783;BME280;10051;40.294;-3.754;2022-10-10T14:08:15;94202.59;;;22.76;50.42
19783;BME280;10051;40.294;-3.754;2022-10-10T14:10:42;94234.09;;;23.02;50.21
19783;BME280;10051;40.294;-3.754;2022-10-10T14:13:16;94230.94;;;22.97;50.36
19783;BME280;10051;40.294;-3.754;2022-10-10T14:15:43;94242.34;;;23.13;50.64
19783;BME280;10051;40.294;-3.754;2022-10-10T14:18:20;94226.47;;;23.05;50.86
19783;BME280;10051;40.294;-3.754;2022-10-10T14:20:46;94237.25;;;23.08;49.96
19783;BME280;10051;40.294;-3.754;2022-10-10T14:23:12;94226.41;;;23.01;49.79
19783;BME280;10051;40.294;-3.754;2022-10-10T14:25:40;94148.97;;;22.53;49.66
19783;BME280;10051;40.294;-3.754;2022-10-10T14:28:19;94224.19;;;23.07;49.84
19783;BME280;10051;40.294;-3.754;2022-10-10T14:30:45;94176.94;;;22.75;49.80
19783;BME280;10051;40.294;-3.754;2022-10-10T14:33:12;94213.84;;;23.05;49.54
19783;BME280;10051;40.294;-3.754;2022-10-10T14:35:38;94183.84;;;22.76;49.64
19783;BME280;10051;40.294;-3.754;2022-10-10T14:38:05;94246.66;;;23.22;49.63